Time;durP1;ratioP1;P1;durP2;ratioP2;P2;SDS_P1;SDS_P2;PMS_P1;PMS_P2;Temp;Humidity;BMP_temperature;BMP_pressure;BME280_temperature;BME280_humidity;BME280_pressure;Samples;Min_cycle;Max_cycle;Signal;HPM_P1;HPM_P2
2023/07/30 00:01:52;;;;;;;2.10;1.90;;;20.80;99.90;;;;;;4979046;28;20392;-83
2023/07/30 00:04:17;;;;;;;2.23;2.03;;;21.30;99.90;;;;;;4988643;28;20399;-86
2023/07/30 00:06:43;;;;;;;6.20;2.00;;;20.80;99.90;;;;;;4972070;28;20456;-84
2023/07/30 00:09:08;;;;;;;2.30;2.07;;;20.90;99.90;;;;;;4971516;28;20411;-85
2023/07/30 00:11:34;;;;;;;2.53;2.33;;;20.20;99.90;;;;;;4974763;28;20423;-84
2023/07/30 00:13:59;;;;;;;2.30;2.10;;;20.70;99.90;;;;;;4991603;28;20384;-84
2023/07/30 00:16:26;;;;;;;2.60;1.97;;;20.70;99.90;;;;;;4975422;28;20411;-85
2023/07/30 00:18:51;;;;;;;2.17;1.98;;;20.70;99.90;;;;;;4973581;28;20392;-84
2023/07/30 00:21:17;;;;;;;2.40;2.20;;;20.70;99.90;;;;;;4973747;28;20475;-85
2023/07/30 00:23:42;;;;;;;2.05;1.90;;;20.70;99.90;;;;;;4973266;28;20403;-85
2023/07/30 00:26:08;;;;;;;2.80;2.00;;;21.00;99.90;;;;;;4989861;28;20404;-85
2023/07/30 00:28:33;;;;;;;2.38;2.00;;;20.70;99.90;;;;;;4992763;28;20410;-83
2023/07/30 00:30:59;;;;;;;2.37;2.17;;;20.70;99.90;;;;;;4977639;28;20447;-84
2023/07/30 00:33:24;;;;;;;2.60;2.03;;;20.70;99.90;;;;;;4977654;28;20396;-84
2023/07/30 00:35:53;;;;;;;3.60;2.00;;;20.70;99.90;;;;;;4976676;28;20399;-84
2023/07/30 00:38:19;;;;;;;2.30;2.10;;;20.70;99.90;;;;;;4996656;28;20418;-87
2023/07/30 00:40:45;;;;;;;1.70;1.60;;;20.80;99.90;;;;;;4975912;28;20405;-84
2023/07/30 00:43:10;;;;;;;2.00;1.80;;;20.70;99.90;;;;;;4975326;28;20404;-84
2023/07/30 00:45:38;;;;;;;2.30;2.10;;;20.70;99.90;;;;;;4992047;28;20415;-84
2023/07/30 00:48:04;;;;;;;3.40;1.92;;;20.70;99.90;;;;;;4989288;28;20404;-84
2023/07/30 00:50:30;;;;;;;3.05;1.67;;;20.70;99.90;;;;;;4971145;28;20404;-85
2023/07/30 00:52:56;;;;;;;2.45;2.03;;;20.50;99.90;;;;;;4971181;28;20503;-85
2023/07/30 00:55:21;;;;;;;2.00;1.70;;;20.70;99.90;;;;;;4970634;28;20888;-84
2023/07/30 00:57:48;;;;;;;2.30;2.10;;;20.70;99.90;;;;;;4971107;28;20495;-84
2023/07/30 01:00:14;;;;;;;1.83;1.70;;;20.50;99.90;;;;;;4987267;28;20419;-84
2023/07/30 01:02:39;;;;;;;3.40;2.50;;;20.70;99.90;;;;;;4987303;28;20392;-85
2023/07/30 01:05:05;;;;;;;2.60;2.17;;;20.60;99.90;;;;;;4975060;28;20412;-84
2023/07/30 01:07:31;;;;;;;1.90;1.80;;;20.60;99.90;;;;;;4990936;28;20407;-84
2023/07/30 01:09:57;;;;;;;2.05;1.85;;;20.30;99.90;;;;;;4970588;28;20391;-84
2023/07/30 01:12:24;;;;;;;2.20;2.00;;;20.60;99.90;;;;;;4971211;28;20475;-82
2023/07/30 01:14:50;;;;;;;2.28;1.83;;;20.60;99.90;;;;;;4970405;28;20432;-82
2023/07/30 01:17:16;;;;;;;2.20;2.00;;;20.70;99.90;;;;;;4986957;28;20416;-82
2023/07/30 01:19:41;;;;;;;2.50;2.30;;;20.60;99.90;;;;;;4970457;28;20443;-83
2023/07/30 01:22:07;;;;;;;2.20;2.00;;;20.60;99.90;;;;;;4986150;28;20396;-83
2023/07/30 01:24:32;;;;;;;2.30;2.10;;;20.60;99.90;;;;;;4969692;28;20435;-83
2023/07/30 01:27:05;;;;;;;2.25;2.05;;;20.40;99.90;;;;;;4986973;28;20401;-82
2023/07/30 01:30:01;;;;;;;3.90;1.97;;;20.60;99.90;;;;;;4968686;28;20400;-81
2023/07/30 01:32:29;;;;;;;2.13;1.92;;;21.00;99.90;;;;;;4980545;28;20823;-83
2023/07/30 01:34:57;;;;;;;2.50;2.20;;;20.50;99.90;;;;;;4967510;28;20456;-83
2023/07/30 01:37:23;;;;;;;3.70;1.65;;;21.00;99.90;;;;;;4984853;28;20380;-83
2023/07/30 01:39:49;;;;;;;2.10;1.70;;;20.50;99.90;;;;;;4966771;28;20389;-82
2023/07/30 01:42:16;;;;;;;2.70;1.90;;;19.30;99.90;;;;;;4986716;28;20396;-83
2023/07/30 01:44:41;;;;;;;2.80;1.92;;;20.70;99.90;;;;;;4965557;28;20946;-82
2023/07/30 01:47:07;;;;;;;3.00;2.20;;;20.40;99.90;;;;;;4987301;28;20392;-81
2023/07/30 01:49:33;;;;;;;2.60;2.40;;;20.50;99.90;;;;;;4969689;28;20802;-83
2023/07/30 01:51:59;;;;;;;4.10;2.10;;;20.50;99.90;;;;;;5003172;28;20414;-84
2023/07/30 01:54:24;;;;;;;2.83;2.00;;;21.00;99.90;;;;;;4976179;28;20427;-85
2023/07/30 01:56:50;;;;;;;1.90;1.80;;;20.40;99.90;;;;;;4993248;28;20426;-83
2023/07/30 01:59:16;;;;;;;2.53;1.70;;;20.30;99.90;;;;;;4990328;28;20392;-83
2023/07/30 02:01:42;;;;;;;2.30;2.10;;;20.10;99.90;;;;;;4971656;28;20396;-84
2023/07/30 02:04:07;;;;;;;2.58;1.80;;;20.30;99.90;;;;;;5006619;28;20495;-84
2023/07/30 02:06:33;;;;;;;1.90;1.67;;;20.40;99.90;;;;;;5008448;28;20390;-84
2023/07/30 02:08:58;;;;;;;3.97;2.60;;;21.10;99.90;;;;;;4951433;29;20401;-85
2023/07/30 02:11:24;;;;;;;2.03;1.92;;;19.80;99.90;;;;;;4950401;29;20405;-83
2023/07/30 02:13:50;;;;;;;2.80;1.80;;;20.10;99.90;;;;;;4957773;29;20400;-84
2023/07/30 02:16:15;;;;;;;1.88;1.77;;;21.00;99.90;;;;;;4950970;29;20402;-82
2023/07/30 02:18:41;;;;;;;2.23;1.83;;;20.80;99.90;;;;;;4985738;28;20462;-81
2023/07/30 02:21:06;;;;;;;3.30;1.88;;;20.30;99.90;;;;;;4997909;28;20411;-80
2023/07/30 02:23:32;;;;;;;2.27;2.07;;;20.30;99.90;;;;;;4958492;28;20396;-81
2023/07/30 02:25:57;;;;;;;1.83;1.73;;;19.90;99.90;;;;;;4976643;28;20399;-80
2023/07/30 02:28:23;;;;;;;2.00;1.80;;;20.90;99.90;;;;;;4976558;28;20475;-82
2023/07/30 02:30:48;;;;;;;3.00;2.00;;;19.70;99.90;;;;;;4959887;28;20431;-79
2023/07/30 02:33:14;;;;;;;2.80;1.92;;;20.90;99.90;;;;;;4969110;28;20426;-80
2023/07/30 02:35:39;;;;;;;2.47;2.00;;;20.10;99.90;;;;;;4962177;28;20469;-81
2023/07/30 02:38:05;;;;;;;2.00;1.80;;;20.20;99.90;;;;;;4977819;28;20414;-81
2023/07/30 02:40:31;;;;;;;2.30;1.70;;;20.10;99.90;;;;;;4994604;28;20905;-81
2023/07/30 02:42:56;;;;;;;2.60;1.80;;;19.80;99.90;;;;;;4977638;28;20394;-80
2023/07/30 02:45:22;;;;;;;2.00;1.70;;;20.20;99.90;;;;;;4994103;28;20485;-81
2023/07/30 02:47:48;;;;;;;4.00;2.00;;;20.20;99.90;;;;;;4958461;28;20825;-81
2023/07/30 02:50:13;;;;;;;1.90;1.70;;;20.30;99.90;;;;;;4959184;28;20950;-82
2023/07/30 02:52:39;;;;;;;2.50;1.88;;;20.30;99.90;;;;;;4957763;28;20411;-82
2023/07/30 02:55:05;;;;;;;2.07;1.67;;;20.10;99.90;;;;;;4981943;28;20399;-82
2023/07/30 02:57:30;;;;;;;1.70;1.60;;;20.10;99.90;;;;;;4978047;28;20450;-83
2023/07/30 02:59:56;;;;;;;2.20;1.67;;;21.90;99.90;;;;;;4994059;28;20383;-82
2023/07/30 03:02:21;;;;;;;2.72;2.00;;;20.10;99.90;;;;;;4976143;28;20762;-81
2023/07/30 03:04:47;;;;;;;2.93;2.00;;;19.50;99.90;;;;;;4973737;28;20428;-81
2023/07/30 03:07:12;;;;;;;1.70;1.60;;;20.20;99.90;;;;;;4975347;28;20389;-82
2023/07/30 03:09:38;;;;;;;1.80;1.70;;;22.60;99.90;;;;;;4957899;28;20388;-83
2023/07/30 03:12:04;;;;;;;2.67;1.65;;;20.20;99.90;;;;;;4956693;28;20776;-82
2023/07/30 03:14:29;;;;;;;1.80;1.70;;;20.20;99.90;;;;;;4975821;28;20981;-81
2023/07/30 03:16:55;;;;;;;2.10;1.90;;;20.20;99.90;;;;;;4977781;28;20425;-81
2023/07/30 03:19:20;;;;;;;2.17;1.80;;;20.10;99.90;;;;;;4975994;28;20433;-83
2023/07/30 03:21:46;;;;;;;2.80;2.10;;;20.50;99.90;;;;;;4982084;28;20436;-82
2023/07/30 03:24:11;;;;;;;2.60;1.83;;;20.10;99.90;;;;;;4955436;28;20436;-80
2023/07/30 03:26:37;;;;;;;2.23;1.90;;;20.10;99.90;;;;;;4956868;28;20944;-81
2023/07/30 03:29:03;;;;;;;2.15;1.80;;;20.10;99.90;;;;;;4956660;28;20435;-81
2023/07/30 03:31:28;;;;;;;4.40;1.80;;;20.10;99.90;;;;;;4973784;28;20408;-81
2023/07/30 03:33:54;;;;;;;2.10;1.80;;;20.10;99.90;;;;;;4959606;28;20811;-81
2023/07/30 03:36:19;;;;;;;3.80;2.05;;;20.10;99.90;;;;;;4975674;28;21032;-82
2023/07/30 03:38:45;;;;;;;1.60;1.50;;;20.00;99.90;;;;;;4993677;28;20425;-81
2023/07/30 03:41:11;;;;;;;2.63;2.00;;;19.60;99.90;;;;;;4975578;28;20540;-82
2023/07/30 03:43:37;;;;;;;2.10;1.60;;;20.10;99.90;;;;;;4993458;28;20394;-81
2023/07/30 03:46:02;;;;;;;1.90;1.58;;;21.10;99.90;;;;;;4960860;28;20403;-81
2023/07/30 03:48:28;;;;;;;2.30;1.50;;;20.80;99.90;;;;;;4979484;28;20987;-82
2023/07/30 03:50:54;;;;;;;2.30;1.60;;;20.00;99.90;;;;;;4977624;28;20471;-80
2023/07/30 03:53:20;;;;;;;2.25;1.80;;;20.00;99.90;;;;;;4960299;28;20391;-81
2023/07/30 03:55:45;;;;;;;1.60;1.50;;;20.00;99.90;;;;;;4977879;28;20396;-82
2023/07/30 03:58:11;;;;;;;2.43;1.60;;;19.80;99.90;;;;;;4986573;28;20522;-82
2023/07/30 04:00:37;;;;;;;1.63;1.50;;;19.90;99.90;;;;;;4959767;28;20400;-82
2023/07/30 04:03:02;;;;;;;1.90;1.63;;;19.90;99.90;;;;;;4960473;28;20926;-82
2023/07/30 04:05:29;;;;;;;1.67;1.58;;;20.00;99.90;;;;;;4959951;28;20396;-80
2023/07/30 04:07:54;;;;;;;2.83;1.50;;;19.90;99.90;;;;;;4979058;28;20396;-82
2023/07/30 04:10:20;;;;;;;1.53;1.43;;;20.50;99.90;;;;;;4979842;28;20420;-80
2023/07/30 04:12:45;;;;;;;2.17;1.90;;;20.20;99.90;;;;;;4996359;28;20774;-81
2023/07/30 04:15:11;;;;;;;1.75;1.60;;;20.00;99.90;;;;;;4979745;28;20404;-82
2023/07/30 04:17:37;;;;;;;3.13;1.50;;;19.90;99.90;;;;;;4967581;28;20396;-82
2023/07/30 04:20:04;;;;;;;1.75;1.65;;;20.00;99.90;;;;;;4999028;28;20380;-79
2023/07/30 04:22:29;;;;;;;1.60;1.50;;;19.90;99.90;;;;;;4981972;28;20422;-81
2023/07/30 04:24:55;;;;;;;1.75;1.60;;;19.90;99.90;;;;;;4995387;28;20426;-79
2023/07/30 04:27:20;;;;;;;3.00;1.70;;;19.80;99.90;;;;;;5002756;28;20402;-82
2023/07/30 04:29:46;;;;;;;2.23;1.77;;;19.40;99.90;;;;;;4961037;28;20404;-82
2023/07/30 04:32:12;;;;;;;1.70;1.60;;;19.90;99.90;;;;;;4983682;28;20412;-80
2023/07/30 04:34:37;;;;;;;1.43;1.33;;;20.40;99.90;;;;;;4985268;28;20451;-81
2023/07/30 04:37:03;;;;;;;1.70;1.60;;;19.70;99.90;;;;;;4965471;28;20411;-81
2023/07/30 04:39:31;;;;;;;3.58;1.65;;;20.00;99.90;;;;;;4993956;28;20395;-81
2023/07/30 04:41:57;;;;;;;1.70;1.60;;;20.70;99.90;;;;;;4979897;28;20487;-81
2023/07/30 04:44:22;;;;;;;1.60;1.50;;;18.80;99.90;;;;;;4970474;28;20400;-80
2023/07/30 04:46:48;;;;;;;1.70;1.60;;;19.60;99.90;;;;;;4960702;28;20523;-81
2023/07/30 04:49:13;;;;;;;1.60;1.50;;;20.00;99.90;;;;;;4960463;28;20741;-82
2023/07/30 04:51:39;;;;;;;1.50;1.40;;;20.40;99.90;;;;;;4959784;28;20490;-81
2023/07/30 04:54:04;;;;;;;1.70;1.60;;;20.10;99.90;;;;;;4983675;28;20390;-81
2023/07/30 04:56:30;;;;;;;3.00;1.40;;;19.90;99.90;;;;;;4997037;28;20509;-81
2023/07/30 04:58:55;;;;;;;1.48;1.38;;;20.10;99.90;;;;;;4984877;28;20481;-81
2023/07/30 05:01:21;;;;;;;1.30;1.20;;;20.10;99.90;;;;;;5004470;28;20458;-80
2023/07/30 05:03:47;;;;;;;2.20;1.40;;;20.10;99.90;;;;;;4969906;28;20482;-81
2023/07/30 05:06:12;;;;;;;2.17;1.60;;;20.10;99.90;;;;;;4961135;28;20415;-81
2023/07/30 05:08:38;;;;;;;2.10;1.50;;;20.20;99.90;;;;;;4977848;28;20528;-82
2023/07/30 05:11:03;;;;;;;1.85;1.60;;;19.90;99.90;;;;;;4959302;28;20505;-83
2023/07/30 05:13:29;;;;;;;1.87;1.67;;;20.10;99.90;;;;;;4977543;28;20943;-82
2023/07/30 05:15:54;;;;;;;2.20;1.58;;;20.10;99.90;;;;;;4992302;28;20424;-82
2023/07/30 05:18:20;;;;;;;1.90;1.60;;;20.10;99.90;;;;;;4974826;28;20915;-83
2023/07/30 05:20:46;;;;;;;2.03;1.60;;;20.10;99.90;;;;;;4960098;28;20443;-81
2023/07/30 05:23:11;;;;;;;1.60;1.50;;;20.10;99.90;;;;;;4977440;28;20944;-83
2023/07/30 05:25:37;;;;;;;2.10;1.80;;;20.10;99.90;;;;;;4976270;28;20423;-81
2023/07/30 05:28:03;;;;;;;2.30;1.67;;;20.00;99.90;;;;;;4976761;28;20396;-83
2023/07/30 05:30:28;;;;;;;1.80;1.70;;;20.00;99.90;;;;;;4995624;28;20410;-83
2023/07/30 05:32:54;;;;;;;2.00;1.80;;;20.10;99.90;;;;;;4973442;28;20397;-83
2023/07/30 05:35:20;;;;;;;2.00;1.40;;;20.00;99.90;;;;;;4959037;28;20435;-82
2023/07/30 05:37:45;;;;;;;1.70;1.60;;;20.50;99.90;;;;;;4959852;28;20950;-82
2023/07/30 05:40:11;;;;;;;3.97;1.60;;;20.10;99.90;;;;;;4958781;28;20416;-82
2023/07/30 05:42:36;;;;;;;1.50;1.40;;;20.10;99.90;;;;;;4959345;28;20523;-84
2023/07/30 05:45:02;;;;;;;1.67;1.58;;;20.60;99.90;;;;;;4975549;28;20393;-83
2023/07/30 05:47:27;;;;;;;3.30;1.80;;;20.10;99.90;;;;;;4973795;28;20457;-83
2023/07/30 05:49:53;;;;;;;2.88;1.80;;;19.70;99.90;;;;;;4976607;28;20446;-82
2023/07/30 05:52:19;;;;;;;1.52;1.42;;;20.00;99.90;;;;;;4958346;28;20467;-83
2023/07/30 05:54:44;;;;;;;1.70;1.60;;;20.10;99.90;;;;;;4976257;28;20484;-82
2023/07/30 05:57:10;;;;;;;2.38;1.50;;;20.10;99.90;;;;;;4958884;28;20483;-80
2023/07/30 05:59:35;;;;;;;1.60;1.40;;;20.10;99.90;;;;;;4958271;28;20431;-83
2023/07/30 06:02:03;;;;;;;1.80;1.70;;;20.20;99.90;;;;;;4958836;28;20915;-83
2023/07/30 06:04:29;;;;;;;1.50;1.40;;;20.10;99.90;;;;;;4964505;28;21019;-82
2023/07/30 06:06:55;;;;;;;1.70;1.60;;;20.30;99.90;;;;;;4957972;28;20922;-83
2023/07/30 06:09:20;;;;;;;1.73;1.60;;;20.30;99.90;;;;;;4958117;28;20408;-82
2023/07/30 06:11:46;;;;;;;1.47;1.37;;;20.30;99.90;;;;;;4957676;28;20412;-82
2023/07/30 06:14:12;;;;;;;2.00;1.50;;;20.50;99.90;;;;;;4974638;28;20411;-82
2023/07/30 06:16:37;;;;;;;1.73;1.60;;;20.30;99.90;;;;;;4974776;28;21034;-82
2023/07/30 06:19:03;;;;;;;1.77;1.67;;;21.50;99.90;;;;;;4958241;28;20903;-82
2023/07/30 06:21:28;;;;;;;1.50;1.40;;;20.40;99.90;;;;;;4965120;28;20403;-80
2023/07/30 06:23:54;;;;;;;1.80;1.70;;;20.60;99.90;;;;;;4994297;28;20918;-82
2023/07/30 06:26:19;;;;;;;1.60;1.50;;;20.60;99.90;;;;;;4978552;28;20442;-83
2023/07/30 06:28:45;;;;;;;1.50;1.40;;;19.70;99.90;;;;;;4977726;28;20453;-82
2023/07/30 06:31:10;;;;;;;2.00;1.60;;;20.40;99.90;;;;;;4992242;28;20412;-82
2023/07/30 06:33:37;;;;;;;1.50;1.40;;;20.50;99.90;;;;;;4962234;28;20416;-82
2023/07/30 06:36:03;;;;;;;1.73;1.45;;;20.40;99.90;;;;;;4964711;28;20816;-81
2023/07/30 06:38:29;;;;;;;1.40;1.30;;;20.40;99.90;;;;;;4960912;28;20423;-82
2023/07/30 06:40:57;;;;;;;2.20;1.70;;;20.40;99.90;;;;;;4985225;28;20384;-80
2023/07/30 06:43:23;;;;;;;2.30;1.70;;;20.50;99.90;;;;;;4988465;28;20392;-80
2023/07/30 06:45:48;;;;;;;2.20;1.50;;;20.50;99.90;;;;;;4972646;28;20416;-80
2023/07/30 06:48:15;;;;;;;1.87;1.47;;;20.60;99.90;;;;;;4982839;28;20408;-81
2023/07/30 06:50:41;;;;;;;1.80;1.60;;;20.50;99.90;;;;;;4957730;28;20943;-83
2023/07/30 06:53:06;;;;;;;1.50;1.40;;;21.60;99.90;;;;;;4981698;28;20402;-79
2023/07/30 06:55:32;;;;;;;2.03;1.60;;;19.70;99.90;;;;;;4994173;28;20461;-82
2023/07/30 06:57:58;;;;;;;2.00;1.60;;;20.60;99.90;;;;;;4976717;28;20542;-80
2023/07/30 07:00:23;;;;;;;1.88;1.67;;;21.00;99.90;;;;;;4976745;28;20394;-82
2023/07/30 07:02:49;;;;;;;1.70;1.43;;;20.30;99.90;;;;;;4973520;28;20410;-81
2023/07/30 07:05:15;;;;;;;2.60;1.60;;;20.60;99.90;;;;;;4975061;28;20391;-80
2023/07/30 07:07:40;;;;;;;2.60;1.77;;;20.60;99.90;;;;;;4975139;28;20391;-83
2023/07/30 07:10:06;;;;;;;2.60;1.70;;;19.80;99.90;;;;;;4975513;28;20396;-81
2023/07/30 07:12:32;;;;;;;1.80;1.50;;;21.00;99.90;;;;;;4983481;28;20440;-82
2023/07/30 07:14:58;;;;;;;2.70;1.50;;;21.10;99.90;;;;;;4968855;28;20419;-80
2023/07/30 07:17:24;;;;;;;1.70;1.60;;;21.30;99.90;;;;;;4969098;28;20452;-81
2023/07/30 07:19:50;;;;;;;2.00;1.70;;;21.30;99.90;;;;;;4974851;28;20424;-82
2023/07/30 07:22:17;;;;;;;1.70;1.23;;;20.10;99.90;;;;;;4957362;28;20419;-82
2023/07/30 07:24:44;;;;;;;2.03;1.60;;;21.30;99.90;;;;;;4969341;28;20392;-83
2023/07/30 07:27:09;;;;;;;1.70;1.20;;;21.40;99.90;;;;;;4976058;28;20403;-80
2023/07/30 07:29:35;;;;;;;1.63;1.53;;;21.40;99.90;;;;;;4964548;28;20425;-83
2023/07/30 07:32:00;;;;;;;1.60;1.50;;;21.30;99.90;;;;;;4984324;28;20426;-83
2023/07/30 07:34:26;;;;;;;1.80;1.50;;;21.30;99.90;;;;;;4965844;28;20404;-84
2023/07/30 07:36:51;;;;;;;1.60;1.48;;;20.50;99.90;;;;;;4961941;28;20400;-83
2023/07/30 07:39:18;;;;;;;2.50;1.50;;;21.20;99.90;;;;;;4977104;28;20388;-83
2023/07/30 07:41:43;;;;;;;1.60;1.50;;;21.20;99.90;;;;;;4978337;28;20986;-83
2023/07/30 07:44:09;;;;;;;2.28;1.50;;;21.10;99.90;;;;;;4969005;28;20549;-84
2023/07/30 07:46:34;;;;;;;1.40;1.30;;;21.30;99.90;;;;;;4979323;28;20390;-83
2023/07/30 07:49:00;;;;;;;1.60;1.50;;;21.30;99.90;;;;;;4999732;28;20472;-83
2023/07/30 07:51:25;;;;;;;1.63;1.50;;;21.40;99.90;;;;;;4998235;28;20441;-84
2023/07/30 07:53:51;;;;;;;1.60;1.30;;;21.50;99.90;;;;;;4977350;28;20400;-84
2023/07/30 07:56:16;;;;;;;1.43;1.30;;;21.70;99.90;;;;;;4978670;28;20446;-82
2023/07/30 07:58:43;;;;;;;1.47;1.37;;;21.80;99.90;;;;;;4973080;28;20439;-82
2023/07/30 08:01:09;;;;;;;1.45;1.35;;;21.70;99.90;;;;;;4978662;28;20400;-83
2023/07/30 08:03:34;;;;;;;1.50;1.40;;;22.10;99.90;;;;;;4978246;28;20396;-84
2023/07/30 08:06:00;;;;;;;1.50;1.40;;;22.10;99.90;;;;;;4964689;28;20411;-83
2023/07/30 08:08:26;;;;;;;1.60;1.30;;;21.40;99.90;;;;;;4960356;28;20400;-84
2023/07/30 08:10:52;;;;;;;2.22;1.60;;;21.80;99.90;;;;;;4968073;28;20410;-83
2023/07/30 08:13:18;;;;;;;2.50;1.60;;;21.60;99.90;;;;;;4987883;28;20395;-83
2023/07/30 08:15:43;;;;;;;1.90;1.50;;;21.70;99.90;;;;;;4969622;28;20414;-84
2023/07/30 08:18:09;;;;;;;2.40;1.40;;;23.40;99.90;;;;;;4980393;28;20461;-83
2023/07/30 08:20:35;;;;;;;1.80;1.40;;;21.90;99.90;;;;;;4981740;28;20514;-83
2023/07/30 08:23:01;;;;;;;2.30;1.50;;;23.70;99.90;;;;;;4985521;28;20484;-82
2023/07/30 08:25:26;;;;;;;2.50;1.80;;;21.80;99.90;;;;;;4991747;28;20403;-83
2023/07/30 08:27:52;;;;;;;1.75;1.50;;;21.70;99.90;;;;;;4993490;28;20394;-82
2023/07/30 08:30:18;;;;;;;1.63;1.53;;;21.80;99.90;;;;;;5014284;28;20456;-83
2023/07/30 08:32:44;;;;;;;1.38;1.27;;;22.00;99.90;;;;;;5018370;28;20427;-84
2023/07/30 08:35:10;;;;;;;2.70;1.70;;;24.00;99.90;;;;;;5000033;28;20406;-83
2023/07/30 08:37:36;;;;;;;1.70;1.50;;;21.90;99.90;;;;;;4983850;28;20403;-84
2023/07/30 08:40:01;;;;;;;3.33;1.65;;;21.90;99.90;;;;;;4995270;28;20399;-83
2023/07/30 08:42:27;;;;;;;1.95;1.75;;;21.90;99.90;;;;;;4994015;28;20404;-83
2023/07/30 08:44:52;;;;;;;1.70;1.50;;;21.90;99.90;;;;;;4995832;28;20428;-82
2023/07/30 08:47:18;;;;;;;1.60;1.50;;;22.00;99.90;;;;;;4996868;28;20388;-84
2023/07/30 08:49:43;;;;;;;1.90;1.70;;;22.00;99.90;;;;;;4979991;28;20395;-83
2023/07/30 08:52:10;;;;;;;2.00;1.63;;;22.30;99.90;;;;;;5008646;28;20442;-84
2023/07/30 08:54:37;;;;;;;1.70;1.60;;;21.90;99.90;;;;;;4972081;28;20468;-82
2023/07/30 08:57:03;;;;;;;2.00;1.80;;;22.10;99.90;;;;;;4992772;28;20396;-84
2023/07/30 08:59:38;;;;;;;2.40;1.63;;;22.00;99.90;;;;;;4997813;28;20404;-84
2023/07/30 09:02:08;;;;;;;1.92;1.60;;;21.70;99.90;;;;;;4978915;28;20383;-84
2023/07/30 09:04:36;;;;;;;2.10;1.60;;;22.00;99.90;;;;;;4997712;28;20372;-83
2023/07/30 09:07:02;;;;;;;2.30;1.30;;;22.00;99.90;;;;;;4980734;28;20464;-83
2023/07/30 09:09:27;;;;;;;1.70;1.50;;;21.90;99.90;;;;;;4968271;28;20746;-84
2023/07/30 09:11:54;;;;;;;2.33;1.40;;;21.70;99.90;;;;;;4992761;28;20414;-82
2023/07/30 09:14:21;;;;;;;2.72;1.60;;;22.00;99.90;;;;;;4989162;28;20924;-83
2023/07/30 09:16:46;;;;;;;1.77;1.67;;;21.30;99.90;;;;;;5006624;28;20387;-84
2023/07/30 09:19:17;;;;;;;1.70;1.60;;;23.10;99.90;;;;;;4988125;28;20402;-84
2023/07/30 09:21:43;;;;;;;2.80;1.30;;;22.10;99.90;;;;;;4997970;28;20411;-84
2023/07/30 09:24:08;;;;;;;1.70;1.50;;;22.10;99.90;;;;;;4968274;28;20404;-85
2023/07/30 09:26:46;;;;;;;1.90;1.20;;;22.00;99.90;;;;;;4987541;28;20402;-83
2023/07/30 09:29:12;;;;;;;2.90;1.53;;;22.10;99.90;;;;;;4985496;28;20394;-81
2023/07/30 09:31:48;;;;;;;1.65;1.55;;;21.40;99.90;;;;;;5008743;28;20775;-82
2023/07/30 09:34:18;;;;;;;1.67;1.45;;;22.40;99.90;;;;;;4968081;28;20464;-83
2023/07/30 09:36:45;;;;;;;2.70;1.40;;;22.40;99.90;;;;;;4968094;28;20394;-83
2023/07/30 09:39:16;;;;;;;2.80;1.70;;;21.60;99.90;;;;;;4998524;28;20469;-83
2023/07/30 09:41:45;;;;;;;1.85;1.60;;;22.70;99.90;;;;;;4981592;28;20418;-84
2023/07/30 09:44:11;;;;;;;1.75;1.35;;;23.00;99.90;;;;;;4988813;28;20406;-81
2023/07/30 09:46:44;;;;;;;3.17;1.60;;;22.50;99.90;;;;;;4985722;28;20388;-81
2023/07/30 09:49:10;;;;;;;2.20;1.45;;;22.60;99.90;;;;;;4982079;28;20439;-80
2023/07/30 09:51:39;;;;;;;2.05;1.40;;;22.60;99.90;;;;;;4998558;28;20431;-81
2023/07/30 09:54:10;;;;;;;3.30;1.38;;;22.30;99.90;;;;;;4966419;28;20395;-83
2023/07/30 09:56:40;;;;;;;2.20;1.40;;;22.50;99.90;;;;;;4977584;28;20406;-84
2023/07/30 09:59:06;;;;;;;2.80;1.50;;;22.50;99.90;;;;;;4982632;28;20390;-84
2023/07/30 10:01:37;;;;;;;4.00;1.60;;;22.20;99.90;;;;;;4965235;28;20857;-82
2023/07/30 10:04:09;;;;;;;2.72;1.67;;;22.40;99.90;;;;;;4980455;28;20439;-82
2023/07/30 10:06:39;;;;;;;1.60;1.50;;;22.90;99.90;;;;;;4979214;28;20475;-83
2023/07/30 10:09:06;;;;;;;2.00;1.70;;;23.20;99.90;;;;;;4963373;28;20941;-81
2023/07/30 10:11:32;;;;;;;3.20;1.63;;;22.60;99.90;;;;;;4978415;28;20414;-83
2023/07/30 10:13:58;;;;;;;2.30;1.60;;;22.40;99.90;;;;;;4966197;28;21030;-83
2023/07/30 10:16:27;;;;;;;2.20;1.60;;;22.60;99.90;;;;;;4979062;28;20392;-83
2023/07/30 10:18:57;;;;;;;2.08;1.40;;;21.60;99.90;;;;;;4978765;28;20931;-82
2023/07/30 10:21:24;;;;;;;1.80;1.45;;;23.50;99.90;;;;;;4979074;28;20487;-83
2023/07/30 10:24:01;;;;;;;2.25;1.40;;;21.50;99.90;;;;;;4994088;28;20395;-83
2023/07/30 10:26:32;;;;;;;1.53;1.43;;;22.60;99.90;;;;;;4981824;28;20416;-81
2023/07/30 10:29:15;;;;;;;1.70;1.60;;;22.70;99.90;;;;;;4967381;28;20404;-82
2023/07/30 10:31:42;;;;;;;2.90;1.50;;;23.00;99.90;;;;;;4962265;28;20427;-82
2023/07/30 10:34:10;;;;;;;2.60;1.70;;;22.20;99.90;;;;;;4964772;28;20452;-83
2023/07/30 10:36:44;;;;;;;2.10;1.67;;;23.00;99.90;;;;;;4982201;28;20392;-82
2023/07/30 10:39:17;;;;;;;1.98;1.48;;;23.10;99.90;;;;;;4966240;28;20396;-82
2023/07/30 10:41:45;;;;;;;1.88;1.60;;;22.90;99.90;;;;;;4965650;28;20539;-83
2023/07/30 10:44:26;;;;;;;2.70;1.70;;;22.70;99.90;;;;;;4986642;28;20404;-81
2023/07/30 10:46:56;;;;;;;2.80;1.58;;;22.80;99.90;;;;;;4979179;28;20757;-83
2023/07/30 10:49:22;;;;;;;2.10;1.80;;;23.00;99.90;;;;;;4979229;28;20394;-82
2023/07/30 10:51:48;;;;;;;3.00;1.92;;;23.10;99.90;;;;;;4979601;28;20415;-84
2023/07/30 10:54:16;;;;;;;1.80;1.60;;;23.10;99.90;;;;;;4992336;28;20826;-82
2023/07/30 10:56:42;;;;;;;1.70;1.50;;;22.90;99.90;;;;;;4981112;28;20917;-83
2023/07/30 10:59:08;;;;;;;1.65;1.55;;;22.90;99.90;;;;;;4997786;28;20472;-83
2023/07/30 11:01:38;;;;;;;2.00;1.88;;;22.60;99.90;;;;;;4978744;28;20392;-82
2023/07/30 11:04:18;;;;;;;2.20;1.60;;;22.50;99.90;;;;;;4962994;28;20400;-83
2023/07/30 11:06:49;;;;;;;2.30;1.60;;;23.00;99.90;;;;;;4979512;28;20387;-83
2023/07/30 11:09:21;;;;;;;2.05;1.70;;;23.50;99.90;;;;;;4961528;28;20448;-84
2023/07/30 11:11:48;;;;;;;1.80;1.70;;;22.50;99.90;;;;;;4982080;28;20458;-81
2023/07/30 11:14:27;;;;;;;2.38;1.90;;;22.10;99.90;;;;;;4960205;28;20407;-82
2023/07/30 11:17:00;;;;;;;1.65;1.55;;;22.30;99.90;;;;;;4960403;28;20472;-83
2023/07/30 11:19:27;;;;;;;1.70;1.60;;;22.20;99.90;;;;;;4960663;28;20896;-83
2023/07/30 11:21:54;;;;;;;3.58;2.00;;;22.10;99.90;;;;;;4991539;28;20401;-84
2023/07/30 11:24:24;;;;;;;2.00;1.70;;;22.10;99.90;;;;;;4968642;28;20431;-82
2023/07/30 11:27:00;;;;;;;1.60;1.50;;;22.30;99.90;;;;;;4958984;28;20861;-81
2023/07/30 11:29:26;;;;;;;2.00;1.80;;;22.50;99.90;;;;;;4970208;28;20395;-83
2023/07/30 11:31:56;;;;;;;1.70;1.60;;;22.50;99.90;;;;;;4976769;28;20408;-83
2023/07/30 11:34:22;;;;;;;2.20;1.70;;;22.90;99.90;;;;;;4960704;28;20420;-82
2023/07/30 11:36:48;;;;;;;2.00;1.57;;;23.70;99.90;;;;;;4960514;28;20407;-83
2023/07/30 11:39:14;;;;;;;2.50;1.47;;;23.60;99.90;;;;;;4977593;28;20399;-82
2023/07/30 11:41:40;;;;;;;1.70;1.60;;;23.80;99.90;;;;;;4969767;28;20506;-83
2023/07/30 11:44:05;;;;;;;1.90;1.70;;;23.70;99.90;;;;;;4976658;28;20424;-83
2023/07/30 11:46:32;;;;;;;2.40;1.70;;;23.50;99.90;;;;;;4959429;28;20395;-83
2023/07/30 11:49:21;;;;;;;2.42;1.70;;;23.20;99.90;;;;;;4959604;28;20404;-82
2023/07/30 11:51:47;;;;;;;1.77;1.67;;;23.00;99.90;;;;;;4967631;28;20446;-83
2023/07/30 11:54:21;;;;;;;2.47;2.00;;;23.00;99.90;;;;;;4996534;28;20770;-83
2023/07/30 11:56:47;;;;;;;3.55;2.30;;;22.70;99.90;;;;;;4977724;28;20398;-82
2023/07/30 11:59:12;;;;;;;1.60;1.50;;;22.80;99.90;;;;;;4991104;28;20397;-83
2023/07/30 12:01:38;;;;;;;3.90;1.70;;;22.60;99.90;;;;;;4959813;28;20407;-84
2023/07/30 12:04:05;;;;;;;2.10;1.90;;;22.60;99.90;;;;;;4959443;28;20403;-83
2023/07/30 12:06:51;;;;;;;2.33;1.60;;;22.80;99.90;;;;;;4982179;28;20402;-84
2023/07/30 12:09:18;;;;;;;2.10;1.60;;;22.50;99.90;;;;;;4968091;28;20394;-84
2023/07/30 12:11:50;;;;;;;2.20;2.00;;;23.20;99.90;;;;;;4999121;28;20417;-83
2023/07/30 12:14:16;;;;;;;2.60;1.90;;;22.80;99.90;;;;;;4990430;28;20402;-83
2023/07/30 12:16:42;;;;;;;2.50;1.80;;;22.90;99.90;;;;;;4981504;28;20397;-83
2023/07/30 12:19:08;;;;;;;1.98;1.80;;;22.60;99.90;;;;;;4981747;28;20458;-83
2023/07/30 12:21:33;;;;;;;1.85;1.52;;;23.20;99.90;;;;;;4999885;28;20835;-85
2023/07/30 12:23:59;;;;;;;2.27;1.60;;;22.90;99.90;;;;;;4970659;28;20844;-84
2023/07/30 12:26:24;;;;;;;1.80;1.70;;;23.40;99.90;;;;;;4983034;28;20392;-83
2023/07/30 12:28:50;;;;;;;2.03;1.40;;;22.80;99.90;;;;;;4980923;28;20384;-84
2023/07/30 12:31:15;;;;;;;1.92;1.65;;;23.20;99.90;;;;;;4984240;28;20425;-84
2023/07/30 12:33:41;;;;;;;1.80;1.60;;;23.30;99.90;;;;;;4970940;28;20447;-85
2023/07/30 12:36:06;;;;;;;2.35;1.90;;;24.10;99.90;;;;;;4979782;28;20391;-84
2023/07/30 12:38:32;;;;;;;3.67;1.70;;;24.20;99.90;;;;;;4980381;28;20388;-85
2023/07/30 12:40:57;;;;;;;2.30;2.00;;;24.00;99.90;;;;;;4964329;28;20388;-84
2023/07/30 12:43:24;;;;;;;1.77;1.63;;;24.60;99.90;;;;;;4982558;28;20413;-83
2023/07/30 12:45:49;;;;;;;2.00;1.58;;;24.70;99.90;;;;;;4984324;28;20399;-85